Anvik, Alaska
Current Conditions -  °F | °C
As of 9:36 AM on Thursday 27 Nov 2014 (Local Time) from PANV Reporting Station
Overcast Overcast  
Wind Chill: -21°   Ceiling: 800
Heat Index: -13°   Visibility: 10mi
Dew Point: -16°   Wind: 12mph
Humidity: 79%   Direction: 30°NNE
Pressure: 30.17"   Gusts: NA
Location:  62.66°N, 160.21°W
Report Text: PANV 271836Z AUTO 03010KT 10SM OVC008 M13/M16 A3017 RMK AO1
Loading
Personal Weather Stations






























Interactive Weather Map New forecast layout! Learn more

10-Day Weather Forecast

Advertisements
Track Severe Weather on mobile